Terminal Aerodrome Forecast
Issued by NWS Cleveland, OH

Home | Current Version | Previous Version | Graphics & Text | Print | Product List | Glossary On
Versions: 1 2 3 4 5 6 7 8 9 10 11 12 13 14 15 16
000
FTUS41 KCLE 191739 AAA
TAFCAK
TAF AMD
KCAK 191739Z 1918/2018 VRB04KT P6SM VCTS SCT040CB BKN110
     FM192300 00000KT P6SM SCT040 BKN110
     FM201000 VRB03KT P6SM SCT008 BKN015
     FM201500 21004KT P6SM BKN035=

USA.gov is the U.S. government's official web portal to all federal, state and local government web resources and services.